createdAt,value
2019-01-27T00:01:17.827Z,-4.06
2019-01-27T00:03:46.177Z,-3.88
2019-01-27T00:06:14.605Z,-3.91
2019-01-27T00:08:43.040Z,-3.99
2019-01-27T00:11:11.514Z,-4.19
2019-01-27T00:13:39.925Z,-4.22
2019-01-27T00:16:08.498Z,-4.06
2019-01-27T00:18:36.956Z,-4.06
2019-01-27T00:21:05.291Z,-4.28
2019-01-27T00:23:33.850Z,-4.19
2019-01-27T00:26:02.239Z,-4.22
2019-01-27T00:28:30.634Z,-4.22
2019-01-27T00:30:59.037Z,-4.44
2019-01-27T00:33:27.413Z,-4.32
2019-01-27T00:35:55.946Z,-4.27
2019-01-27T00:38:24.366Z,-4.28
2019-01-27T00:40:52.701Z,-4.32
2019-01-27T00:43:21.161Z,-4.28
2019-01-27T00:45:49.695Z,-4.30
2019-01-27T00:48:18.227Z,-4.32
2019-01-27T00:50:46.573Z,-4.26
2019-01-27T00:53:15.064Z,-4.42
2019-01-27T00:55:43.598Z,-4.34
2019-01-27T00:58:11.983Z,-4.42
2019-01-27T01:00:40.455Z,-4.69
2019-01-27T01:03:08.982Z,-4.52
2019-01-27T01:05:37.431Z,-4.39
2019-01-27T01:08:06.897Z,-4.44
2019-01-27T01:10:35.447Z,-4.44
2019-01-27T01:13:04.023Z,-4.65
2019-01-27T01:15:32.699Z,-4.57
2019-01-27T01:18:02.037Z,-4.63
2019-01-27T01:20:30.651Z,-4.65
2019-01-27T01:22:59.363Z,-4.79
2019-01-27T01:25:28.591Z,-4.69
2019-01-27T01:27:57.119Z,-4.80
2019-01-27T01:30:26.746Z,-4.86
2019-01-27T01:32:55.849Z,-4.96
2019-01-27T01:35:25.727Z,-5.01
2019-01-27T01:37:55.240Z,-5.06
2019-01-27T01:40:23.928Z,-4.90
2019-01-27T01:42:53.440Z,-4.93
2019-01-27T01:45:24.256Z,-5.23
2019-01-27T01:47:53.053Z,-5.00
2019-01-27T01:50:21.845Z,-5.38
2019-01-27T01:52:50.465Z,-5.13
2019-01-27T01:55:19.565Z,-5.10
2019-01-27T01:57:48.260Z,-5.08
2019-01-27T02:00:21.322Z,-5.10
2019-01-27T02:02:50.629Z,-5.13
2019-01-27T02:05:20.761Z,-5.15
2019-01-27T02:07:51.549Z,-5.09
2019-01-27T02:10:23.035Z,-4.96
2019-01-27T02:12:55.604Z,-4.95
2019-01-27T02:15:53.648Z,-5.02
2019-01-27T02:18:26.389Z,-5.05
2019-01-27T02:21:00.445Z,-5.00
2019-01-27T02:23:31.923Z,-4.82
2019-01-27T02:26:05.886Z,-4.91
2019-01-27T02:28:34.729Z,-4.85
2019-01-27T02:31:04.776Z,-4.83
2019-01-27T02:33:35.805Z,-4.82
2019-01-27T02:36:05.939Z,-4.85
2019-01-27T02:38:35.610Z,-4.83
2019-01-27T02:41:04.783Z,-4.78
2019-01-27T02:43:33.420Z,-4.77
2019-01-27T02:46:02.385Z,-4.68
2019-01-27T02:48:31.450Z,-4.81
2019-01-27T02:51:00.953Z,-4.79
2019-01-27T02:53:30.675Z,-4.86
2019-01-27T02:56:02.318Z,-4.88
2019-01-27T02:58:32.621Z,-4.90
2019-01-27T03:01:01.886Z,-4.76
2019-01-27T03:03:31.712Z,-4.93
2019-01-27T03:06:25.387Z,-4.90
2019-01-27T03:09:00.071Z,-4.95
2019-01-27T03:11:32.094Z,-4.83
2019-01-27T03:14:01.886Z,-4.85
2019-01-27T03:16:31.889Z,-4.81
2019-01-27T03:19:00.573Z,-4.80
2019-01-27T03:21:29.306Z,-4.85
2019-01-27T03:23:58.053Z,-4.88
2019-01-27T03:26:27.774Z,-4.90
2019-01-27T03:29:00.853Z,-4.92
2019-01-27T03:31:29.914Z,-4.97
2019-01-27T03:34:00.285Z,-4.94
2019-01-27T03:36:29.934Z,-4.91
2019-01-27T03:38:59.071Z,-4.97
2019-01-27T03:41:28.879Z,-4.94
2019-01-27T03:43:58.566Z,-4.91
2019-01-27T03:46:30.559Z,-5.02
2019-01-27T03:49:00.045Z,-5.02
2019-01-27T03:51:29.437Z,-4.99
2019-01-27T03:53:58.832Z,-5.24
2019-01-27T03:56:28.290Z,-5.02
2019-01-27T03:58:57.748Z,-4.94
2019-01-27T04:01:27.225Z,-5.09
2019-01-27T04:03:57.875Z,-5.14
2019-01-27T04:06:28.225Z,-5.10
2019-01-27T04:09:05.205Z,-5.18
2019-01-27T04:11:38.371Z,-5.19
2019-01-27T04:14:08.068Z,-5.50
2019-01-27T04:16:37.371Z,-5.34
2019-01-27T04:19:08.001Z,-5.44
2019-01-27T04:21:37.023Z,-5.39
2019-01-27T04:24:20.512Z,-5.44
2019-01-27T04:26:56.646Z,-5.52
2019-01-27T05:10:10.555Z,-6.32
2019-01-27T05:12:43.665Z,-6.30
2019-01-27T05:16:17.840Z,-6.39
2019-01-27T05:19:11.556Z,-6.48
2019-01-27T05:22:27.444Z,-6.56
2019-01-27T05:28:22.938Z,-6.63
2019-01-27T05:30:55.135Z,-6.56
2019-01-27T05:33:28.082Z,-6.84
2019-01-27T05:35:57.076Z,-6.68
2019-01-27T05:38:30.363Z,-6.85
2019-01-27T05:40:59.065Z,-6.64
2019-01-27T05:43:30.767Z,-6.74
2019-01-27T05:46:02.176Z,-6.88
2019-01-27T05:48:35.363Z,-6.87
2019-01-27T05:51:05.836Z,-6.99
2019-01-27T05:53:35.449Z,-6.93
2019-01-27T05:56:14.956Z,-6.94
2019-01-27T05:58:48.589Z,-7.13
2019-01-27T06:01:18.606Z,-7.01
2019-01-27T06:03:57.332Z,-6.98
2019-01-27T06:06:30.977Z,-7.14
2019-01-27T06:08:59.502Z,-7.35
2019-01-27T06:11:30.941Z,-7.10
2019-01-27T06:14:04.989Z,-7.18
2019-01-27T06:16:39.204Z,-7.22
2019-01-27T06:19:08.855Z,-7.44
2019-01-27T06:21:40.864Z,-7.39
2019-01-27T06:24:09.813Z,-7.42
2019-01-27T06:26:40.606Z,-7.46
2019-01-27T06:29:13.669Z,-7.50
2019-01-27T06:31:46.111Z,-7.41
2019-01-27T06:34:19.463Z,-7.42
2019-01-27T06:36:50.857Z,-7.51
2019-01-27T06:39:20.041Z,-7.57
2019-01-27T06:41:48.753Z,-7.62
2019-01-27T06:44:17.566Z,-7.61
2019-01-27T06:46:49.111Z,-7.59
2019-01-27T06:49:17.771Z,-7.70
2019-01-27T06:51:46.331Z,-7.68
2019-01-27T06:54:14.897Z,-7.80
2019-01-27T06:56:44.290Z,-7.81
2019-01-27T06:59:26.789Z,-7.78
2019-01-27T07:02:29.838Z,-7.81
2019-01-27T07:05:26.083Z,-7.73
2019-01-27T07:08:11.771Z,-7.67
2019-01-27T07:11:04.980Z,-7.80
2019-01-27T07:13:50.866Z,-7.89
2019-01-27T07:16:57.555Z,-7.92
2019-01-27T07:19:50.603Z,-7.79
2019-01-27T07:22:33.302Z,-7.87
2019-01-27T07:25:11.844Z,-7.87
2019-01-27T07:28:00.960Z,-8.13
2019-01-27T07:30:46.767Z,-7.99
2019-01-27T07:33:32.373Z,-8.00
2019-01-27T07:36:28.480Z,-7.97
2019-01-27T07:39:18.464Z,-7.95
2019-01-27T07:42:08.768Z,-8.00
2019-01-27T07:44:58.940Z,-8.09
2019-01-27T07:48:04.159Z,-8.08
2019-01-27T07:51:04.358Z,-8.08
2019-01-27T07:53:50.515Z,-8.01
2019-01-27T07:56:36.157Z,-8.11
2019-01-27T07:59:17.604Z,-8.15
2019-01-27T08:01:54.827Z,-8.06
2019-01-27T08:04:57.113Z,-8.09
2019-01-27T08:07:49.793Z,-8.09
2019-01-27T08:10:36.357Z,-8.01
2019-01-27T08:13:23.719Z,-8.19
2019-01-27T08:16:09.945Z,-8.16
2019-01-27T08:18:46.545Z,-8.09
2019-01-27T08:21:25.368Z,-8.11
2019-01-27T08:24:12.152Z,-8.07
2019-01-27T08:27:14.873Z,-8.03
2019-01-27T08:29:57.015Z,-8.08
2019-01-27T08:32:50.508Z,-8.09
2019-01-27T08:35:37.931Z,-8.07
2019-01-27T08:38:14.606Z,-7.87
2019-01-27T08:41:01.150Z,-7.92
2019-01-27T08:43:41.566Z,-8.02
2019-01-27T08:46:32.485Z,-7.88
2019-01-27T08:49:01.188Z,-7.92
2019-01-27T08:51:29.582Z,-8.02
2019-01-27T08:53:58.034Z,-7.90
2019-01-27T08:56:27.675Z,-7.98
2019-01-27T08:58:56.957Z,-7.92
2019-01-27T09:01:47.178Z,-7.86
2019-01-27T09:04:25.858Z,-7.96
2019-01-27T09:07:46.011Z,-7.90
2019-01-27T09:10:25.336Z,-7.73
2019-01-27T09:13:27.574Z,-8.10
2019-01-27T09:16:17.838Z,-7.85
2019-01-27T09:18:54.360Z,-7.87
2019-01-27T09:21:41.764Z,-7.74
2019-01-27T09:24:18.759Z,-7.76
2019-01-27T09:27:15.026Z,-7.92
2019-01-27T09:30:06.316Z,-7.63
2019-01-27T09:32:56.902Z,-7.77
2019-01-27T09:35:47.558Z,-7.62
2019-01-27T09:38:43.788Z,-7.52
2019-01-27T09:41:37.414Z,-7.70
2019-01-27T09:44:33.649Z,-7.52
2019-01-27T09:47:19.518Z,-7.54
2019-01-27T09:50:06.250Z,-7.49
2019-01-27T09:53:11.837Z,-7.61
2019-01-27T09:56:16.598Z,-7.64
2019-01-27T09:59:17.805Z,-7.42
2019-01-27T10:02:07.921Z,-7.38
2019-01-27T10:04:42.385Z,-7.30
2019-01-27T10:07:32.682Z,-7.23
2019-01-27T10:10:23.206Z,-7.20
2019-01-27T10:13:04.230Z,-7.11
2019-01-27T10:15:42.966Z,-7.22
2019-01-27T10:18:57.218Z,-7.08
2019-01-27T10:21:56.607Z,-7.17
2019-01-27T10:24:31.278Z,-7.00
2019-01-27T10:27:12.241Z,-7.25
2019-01-27T10:36:09.061Z,-6.91
2019-01-27T10:38:53.121Z,-6.72
2019-01-27T10:41:43.890Z,-6.72
2019-01-27T10:44:22.321Z,-6.67
2019-01-27T10:47:06.740Z,-6.76
2019-01-27T10:49:57.302Z,-6.70
2019-01-27T10:52:47.445Z,-6.62
2019-01-27T10:55:40.869Z,-6.60
2019-01-27T10:58:30.651Z,-6.57
2019-01-27T11:01:22.404Z,-6.57
2019-01-27T11:04:10.105Z,-6.53
2019-01-27T11:06:48.885Z,-6.51
2019-01-27T11:09:38.170Z,-6.43
2019-01-27T11:12:24.525Z,-6.48
2019-01-27T11:15:14.782Z,-6.49
2019-01-27T11:18:01.227Z,-6.47
2019-01-27T11:20:47.188Z,-6.38
2019-01-27T11:23:40.939Z,-6.34
2019-01-27T11:26:34.590Z,-6.28
2019-01-27T11:29:19.780Z,-6.37
2019-01-27T11:32:22.694Z,-6.50
2019-01-27T11:35:43.952Z,-6.37
2019-01-27T11:38:42.393Z,-6.37
2019-01-27T11:41:40.535Z,-6.23
2019-01-27T11:50:49.037Z,-6.27
2019-01-27T12:03:30.477Z,-6.15
2019-01-27T12:18:39.005Z,-6.13
2019-01-27T13:13:15.620Z,-5.61
2019-01-27T15:58:29.134Z,-5.25
2019-01-27T16:15:47.234Z,-5.29
2019-01-27T16:18:21.128Z,-5.35
2019-01-27T16:20:50.134Z,-5.26
2019-01-27T16:23:40.230Z,-5.16
2019-01-27T16:26:13.444Z,-5.19
2019-01-27T16:28:45.485Z,-5.18
2019-01-27T16:31:37.729Z,-5.27
2019-01-27T16:34:20.299Z,-5.12
2019-01-27T16:36:56.247Z,-5.16
2019-01-27T16:39:30.288Z,-5.14
2019-01-27T16:41:59.008Z,-5.10
2019-01-27T16:44:27.540Z,-5.00
2019-01-27T16:46:56.002Z,-5.11
2019-01-27T16:49:24.452Z,-5.02
2019-01-27T16:51:52.841Z,-5.07
2019-01-27T16:54:21.259Z,-5.07
2019-01-27T16:56:50.227Z,-4.94
2019-01-27T16:59:18.908Z,-5.08
2019-01-27T17:01:47.494Z,-5.02
2019-01-27T17:04:16.324Z,-4.97
2019-01-27T17:06:44.949Z,-4.96
2019-01-27T17:09:13.451Z,-4.98
2019-01-27T17:11:42.259Z,-5.02
2019-01-27T17:14:11.141Z,-5.01
2019-01-27T17:16:40.531Z,-4.92
2019-01-27T17:19:09.476Z,-4.94
2019-01-27T17:21:38.579Z,-5.03
2019-01-27T17:24:07.129Z,-5.02
2019-01-27T17:26:35.704Z,-4.89
2019-01-27T17:29:04.188Z,-5.03
2019-01-27T17:31:32.880Z,-4.96
2019-01-27T17:34:01.325Z,-4.97
2019-01-27T17:36:30.379Z,-4.87
2019-01-27T17:39:09.210Z,-4.88
2019-01-27T17:41:40.330Z,-4.80
2019-01-27T17:44:09.142Z,-4.82
2019-01-27T17:46:42.078Z,-4.73
2019-01-27T17:49:20.873Z,-4.76
2019-01-27T17:51:49.753Z,-4.77
2019-01-27T17:54:18.795Z,-4.72
2019-01-27T17:56:55.071Z,-4.77
2019-01-27T17:59:49.426Z,-4.68
2019-01-27T18:02:43.881Z,-4.77
2019-01-27T18:05:26.223Z,-4.74
2019-01-27T18:08:08.875Z,-4.80
2019-01-27T18:11:03.057Z,-4.70
2019-01-27T18:13:58.743Z,-4.70
2019-01-27T18:16:27.430Z,-4.68
2019-01-27T18:18:55.961Z,-4.68
2019-01-27T18:21:24.857Z,-4.64
2019-01-27T18:23:53.823Z,-4.62
2019-01-27T18:26:23.119Z,-4.61
2019-01-27T18:28:52.365Z,-4.58
2019-01-27T18:31:21.082Z,-4.57
2019-01-27T18:33:49.865Z,-4.52
2019-01-27T18:36:18.552Z,-4.54
2019-01-27T18:38:48.485Z,-4.51
2019-01-27T18:41:19.933Z,-4.52
2019-01-27T18:43:48.540Z,-4.44
2019-01-27T18:46:17.421Z,-4.47
2019-01-27T18:48:46.020Z,-4.39
2019-01-27T18:51:17.321Z,-4.36
2019-01-27T18:54:04.362Z,-4.36
2019-01-27T18:56:49.989Z,-4.46
2019-01-27T18:59:37.437Z,-4.45
2019-01-27T19:02:19.252Z,-4.38
2019-01-27T19:05:18.414Z,-4.28
2019-01-27T19:08:14.565Z,-4.31
2019-01-27T19:11:05.168Z,-4.29
2019-01-27T19:13:55.288Z,-4.29
2019-01-27T19:22:57.407Z,-4.28
2019-01-27T19:25:44.755Z,-4.21
2019-01-27T19:28:34.868Z,-4.19
2019-01-27T19:31:25.145Z,-4.18
2019-01-27T19:34:03.408Z,-4.20
2019-01-27T19:36:39.273Z,-4.23
2019-01-27T19:39:36.458Z,-4.21
2019-01-27T19:42:29.375Z,-4.19
2019-01-27T19:45:11.686Z,-4.13
2019-01-27T19:47:47.796Z,-4.09
2019-01-27T19:50:43.885Z,-4.08
2019-01-27T19:53:32.179Z,-4.15
2019-01-27T19:56:37.571Z,-4.09
2019-01-27T19:59:30.771Z,-4.04
2019-01-27T20:02:22.013Z,-4.15
2019-01-27T20:04:59.972Z,-4.01
2019-01-27T20:07:53.243Z,-4.04
2019-01-27T20:10:52.516Z,-3.95
2019-01-27T20:13:32.657Z,-3.96
2019-01-27T20:16:25.728Z,-3.95
2019-01-27T20:19:04.124Z,-3.93
2019-01-27T20:22:00.207Z,-3.92
2019-01-27T20:24:49.106Z,-3.94
2019-01-27T20:27:34.721Z,-3.95
2019-01-27T20:30:19.459Z,-3.98
2019-01-27T20:33:13.333Z,-3.93
2019-01-27T20:35:56.344Z,-3.91
2019-01-27T20:38:46.562Z,-3.93
2019-01-27T20:41:39.697Z,-3.86
2019-01-27T20:44:11.015Z,-3.82
2019-01-27T20:47:01.090Z,-3.87
2019-01-27T20:49:46.979Z,-3.82
2019-01-27T20:52:30.523Z,-3.78
2019-01-27T20:55:12.093Z,-3.65
2019-01-27T20:57:49.747Z,-3.68
2019-01-27T21:00:45.852Z,-3.70
2019-01-27T21:03:30.114Z,-3.68
2019-01-27T21:06:13.476Z,-3.66
2019-01-27T21:09:15.702Z,-3.69
2019-01-27T21:12:02.925Z,-3.71
2019-01-27T21:14:44.231Z,-3.63
2019-01-27T21:17:33.355Z,-3.58
2019-01-27T21:20:08.031Z,-3.63
2019-01-27T21:22:36.351Z,-3.60
2019-01-27T21:25:05.262Z,-3.61
2019-01-27T21:27:33.676Z,-3.62
2019-01-27T21:30:01.970Z,-3.50
2019-01-27T21:32:30.309Z,-3.49
2019-01-27T21:34:58.763Z,-3.55
2019-01-27T21:37:27.055Z,-3.58
2019-01-27T21:39:55.423Z,-3.52
2019-01-27T21:42:23.911Z,-3.53
2019-01-27T21:44:52.292Z,-3.63
2019-01-27T21:47:20.713Z,-3.51
2019-01-27T21:49:49.140Z,-3.46
2019-01-27T21:52:17.608Z,-3.50
2019-01-27T21:54:45.916Z,-3.44
2019-01-27T21:57:14.418Z,-3.47
2019-01-27T21:59:42.767Z,-3.45
2019-01-27T22:02:11.106Z,-3.44
2019-01-27T22:04:39.565Z,-3.48
2019-01-27T22:07:07.864Z,-3.37
2019-01-27T22:09:36.417Z,-3.32
2019-01-27T22:12:05.139Z,-3.39
2019-01-27T22:14:33.625Z,-3.43
2019-01-27T22:17:01.960Z,-3.37
2019-01-27T22:19:30.479Z,-3.34
2019-01-27T22:21:59.766Z,-3.36
2019-01-27T22:24:28.216Z,-3.33
2019-01-27T22:26:56.817Z,-3.25
2019-01-27T22:29:25.395Z,-3.26
2019-01-27T22:31:54.537Z,-3.29
2019-01-27T22:34:23.021Z,-3.25
2019-01-27T22:36:51.376Z,-3.28
2019-01-27T22:39:20.312Z,-3.21
2019-01-27T22:41:49.423Z,-3.25
2019-01-27T22:44:17.814Z,-3.27
2019-01-27T22:46:46.769Z,-3.24
2019-01-27T22:49:15.431Z,-3.22
2019-01-27T22:51:43.904Z,-3.15
2019-01-27T22:54:13.921Z,-3.19
2019-01-27T22:59:13.066Z,-3.11
2019-01-27T23:01:44.053Z,-3.13
2019-01-27T23:04:14.577Z,-3.12
2019-01-27T23:06:44.092Z,-3.16
2019-01-27T23:09:19.858Z,-3.05
2019-01-27T23:11:50.571Z,-3.08
2019-01-27T23:14:28.182Z,-3.11
2019-01-27T23:17:17.153Z,-3.02
2019-01-27T23:20:12.754Z,-3.04
2019-01-27T23:22:48.080Z,-3.02
2019-01-27T23:25:29.149Z,-3.01
2019-01-27T23:28:12.194Z,-2.98
2019-01-27T23:30:45.825Z,-3.01
2019-01-27T23:33:21.542Z,-2.93
2019-01-27T23:35:57.552Z,-2.97
2019-01-27T23:39:16.867Z,-2.94
2019-01-27T23:42:28.300Z,-2.90
2019-01-27T23:45:36.028Z,-2.85
2019-01-27T23:51:25.883Z,-2.89
2019-01-27T23:58:13.123Z,-2.87
